sensor_id;sensor_type;location;lat;lon;timestamp;temperature;humidity
75738;DHT22;64356;45.638;13.764;2024-02-14T00:00:45;19.90;45.10
75738;DHT22;64356;45.638;13.764;2024-02-14T00:03:10;19.80;45.80
75738;DHT22;64356;45.638;13.764;2024-02-14T00:05:36;19.90;46.00
75738;DHT22;64356;45.638;13.764;2024-02-14T00:08:02;19.80;45.50
75738;DHT22;64356;45.638;13.764;2024-02-14T00:10:28;19.80;45.60
75738;DHT22;64356;45.638;13.764;2024-02-14T00:12:54;19.80;45.70
75738;DHT22;64356;45.638;13.764;2024-02-14T00:15:21;19.80;45.50
75738;DHT22;64356;45.638;13.764;2024-02-14T00:17:46;19.80;45.40
75738;DHT22;64356;45.638;13.764;2024-02-14T00:20:12;19.80;45.30
75738;DHT22;64356;45.638;13.764;2024-02-14T00:22:38;19.80;45.50
75738;DHT22;64356;45.638;13.764;2024-02-14T00:25:05;19.80;45.70
75738;DHT22;64356;45.638;13.764;2024-02-14T00:27:31;19.70;45.80
75738;DHT22;64356;45.638;13.764;2024-02-14T00:29:57;19.80;45.30
75738;DHT22;64356;45.638;13.764;2024-02-14T00:32:22;19.80;45.40
75738;DHT22;64356;45.638;13.764;2024-02-14T00:34:48;19.80;45.20
75738;DHT22;64356;45.638;13.764;2024-02-14T00:37:15;19.80;45.30
75738;DHT22;64356;45.638;13.764;2024-02-14T00:39:41;19.70;44.90
75738;DHT22;64356;45.638;13.764;2024-02-14T00:42:06;19.70;45.30
75738;DHT22;64356;45.638;13.764;2024-02-14T00:44:32;19.70;45.30
75738;DHT22;64356;45.638;13.764;2024-02-14T00:46:58;19.70;45.20
75738;DHT22;64356;45.638;13.764;2024-02-14T00:49:25;19.70;45.10
75738;DHT22;64356;45.638;13.764;2024-02-14T00:51:51;19.70;45.20
75738;DHT22;64356;45.638;13.764;2024-02-14T00:54:18;19.70;45.10
75738;DHT22;64356;45.638;13.764;2024-02-14T00:56:44;19.70;45.20
75738;DHT22;64356;45.638;13.764;2024-02-14T00:59:10;19.70;45.00
75738;DHT22;64356;45.638;13.764;2024-02-14T01:01:38;19.70;44.90
75738;DHT22;64356;45.638;13.764;2024-02-14T01:04:04;19.70;45.10
75738;DHT22;64356;45.638;13.764;2024-02-14T01:06:30;19.70;45.00
75738;DHT22;64356;45.638;13.764;2024-02-14T01:08:55;19.70;45.10
75738;DHT22;64356;45.638;13.764;2024-02-14T01:11:21;19.60;44.90
75738;DHT22;64356;45.638;13.764;2024-02-14T01:13:47;19.70;45.00
75738;DHT22;64356;45.638;13.764;2024-02-14T01:16:14;19.70;45.10
75738;DHT22;64356;45.638;13.764;2024-02-14T01:18:39;19.70;45.10
75738;DHT22;64356;45.638;13.764;2024-02-14T01:21:05;19.70;45.20
75738;DHT22;64356;45.638;13.764;2024-02-14T01:23:31;19.60;45.00
75738;DHT22;64356;45.638;13.764;2024-02-14T01:25:57;19.60;45.00
75738;DHT22;64356;45.638;13.764;2024-02-14T01:28:22;19.60;45.40
75738;DHT22;64356;45.638;13.764;2024-02-14T01:30:48;19.60;45.30
75738;DHT22;64356;45.638;13.764;2024-02-14T01:33:14;19.70;45.40
75738;DHT22;64356;45.638;13.764;2024-02-14T01:35:41;19.60;45.40
75738;DHT22;64356;45.638;13.764;2024-02-14T01:38:08;19.60;45.60
75738;DHT22;64356;45.638;13.764;2024-02-14T01:40:33;19.60;45.50
75738;DHT22;64356;45.638;13.764;2024-02-14T01:43:00;19.60;45.40
75738;DHT22;64356;45.638;13.764;2024-02-14T01:45:26;19.60;45.20
75738;DHT22;64356;45.638;13.764;2024-02-14T01:47:53;19.60;45.40
75738;DHT22;64356;45.638;13.764;2024-02-14T01:50:19;19.60;45.20
75738;DHT22;64356;45.638;13.764;2024-02-14T01:52:54;19.60;45.60
75738;DHT22;64356;45.638;13.764;2024-02-14T01:55:21;19.60;45.40
75738;DHT22;64356;45.638;13.764;2024-02-14T01:57:47;19.60;45.90
75738;DHT22;64356;45.638;13.764;2024-02-14T02:00:12;19.60;45.30
75738;DHT22;64356;45.638;13.764;2024-02-14T02:02:43;19.60;45.10
75738;DHT22;64356;45.638;13.764;2024-02-14T02:05:09;19.60;45.20
75738;DHT22;64356;45.638;13.764;2024-02-14T02:07:35;19.50;45.30
75738;DHT22;64356;45.638;13.764;2024-02-14T02:10:04;19.60;45.20
75738;DHT22;64356;45.638;13.764;2024-02-14T02:12:30;19.60;45.20
75738;DHT22;64356;45.638;13.764;2024-02-14T02:14:55;19.50;45.20
75738;DHT22;64356;45.638;13.764;2024-02-14T02:17:21;19.50;45.40
75738;DHT22;64356;45.638;13.764;2024-02-14T02:19:48;19.50;44.90
75738;DHT22;64356;45.638;13.764;2024-02-14T02:22:14;19.50;44.80
75738;DHT22;64356;45.638;13.764;2024-02-14T02:24:39;19.50;44.70
75738;DHT22;64356;45.638;13.764;2024-02-14T02:27:06;19.50;44.50
75738;DHT22;64356;45.638;13.764;2024-02-14T02:29:31;19.50;44.40
75738;DHT22;64356;45.638;13.764;2024-02-14T02:31:58;19.50;44.40
75738;DHT22;64356;45.638;13.764;2024-02-14T02:34:23;19.50;44.50
75738;DHT22;64356;45.638;13.764;2024-02-14T02:36:49;19.50;44.70
75738;DHT22;64356;45.638;13.764;2024-02-14T02:39:16;19.50;44.70
75738;DHT22;64356;45.638;13.764;2024-02-14T02:41:42;19.50;44.80
75738;DHT22;64356;45.638;13.764;2024-02-14T02:44:07;19.50;44.70
75738;DHT22;64356;45.638;13.764;2024-02-14T02:46:33;19.50;44.90
75738;DHT22;64356;45.638;13.764;2024-02-14T02:49:00;19.50;44.90
75738;DHT22;64356;45.638;13.764;2024-02-14T02:51:27;19.50;44.90
75738;DHT22;64356;45.638;13.764;2024-02-14T02:53:54;19.40;44.90
75738;DHT22;64356;45.638;13.764;2024-02-14T02:56:19;19.50;44.90
75738;DHT22;64356;45.638;13.764;2024-02-14T02:58:47;19.50;44.80
75738;DHT22;64356;45.638;13.764;2024-02-14T03:01:14;19.50;44.80
75738;DHT22;64356;45.638;13.764;2024-02-14T03:03:39;19.50;44.80
75738;DHT22;64356;45.638;13.764;2024-02-14T03:06:06;19.50;44.80
75738;DHT22;64356;45.638;13.764;2024-02-14T03:08:32;19.50;44.70
75738;DHT22;64356;45.638;13.764;2024-02-14T03:11:05;19.50;44.90
75738;DHT22;64356;45.638;13.764;2024-02-14T03:13:31;19.50;44.80
75738;DHT22;64356;45.638;13.764;2024-02-14T03:15:57;19.40;44.70
75738;DHT22;64356;45.638;13.764;2024-02-14T03:18:24;19.40;44.70
75738;DHT22;64356;45.638;13.764;2024-02-14T03:20:49;19.40;44.80
75738;DHT22;64356;45.638;13.764;2024-02-14T03:23:15;19.40;44.80
75738;DHT22;64356;45.638;13.764;2024-02-14T03:25:41;19.40;44.60
75738;DHT22;64356;45.638;13.764;2024-02-14T03:28:08;19.40;44.80
75738;DHT22;64356;45.638;13.764;2024-02-14T03:30:34;19.40;44.60
75738;DHT22;64356;45.638;13.764;2024-02-14T03:33:00;19.40;44.50
75738;DHT22;64356;45.638;13.764;2024-02-14T03:35:26;19.40;44.30
75738;DHT22;64356;45.638;13.764;2024-02-14T03:37:52;19.40;44.40
75738;DHT22;64356;45.638;13.764;2024-02-14T03:40:19;19.40;44.40
75738;DHT22;64356;45.638;13.764;2024-02-14T03:42:45;19.40;44.50
75738;DHT22;64356;45.638;13.764;2024-02-14T03:45:11;19.40;44.60
75738;DHT22;64356;45.638;13.764;2024-02-14T03:47:37;19.40;44.60
75738;DHT22;64356;45.638;13.764;2024-02-14T03:50:05;19.40;44.40
75738;DHT22;64356;45.638;13.764;2024-02-14T03:52:31;19.40;44.40
75738;DHT22;64356;45.638;13.764;2024-02-14T03:55:00;19.40;44.40
75738;DHT22;64356;45.638;13.764;2024-02-14T03:57:26;19.40;44.40
75738;DHT22;64356;45.638;13.764;2024-02-14T03:59:57;19.40;44.40
75738;DHT22;64356;45.638;13.764;2024-02-14T04:02:24;19.40;44.50
75738;DHT22;64356;45.638;13.764;2024-02-14T04:04:54;19.40;44.20
75738;DHT22;64356;45.638;13.764;2024-02-14T04:07:20;19.30;44.30
75738;DHT22;64356;45.638;13.764;2024-02-14T04:09:45;19.30;44.10
75738;DHT22;64356;45.638;13.764;2024-02-14T04:12:11;19.30;44.10
75738;DHT22;64356;45.638;13.764;2024-02-14T04:14:37;19.40;44.00
75738;DHT22;64356;45.638;13.764;2024-02-14T04:17:03;19.30;43.70
75738;DHT22;64356;45.638;13.764;2024-02-14T04:19:29;19.30;43.70
75738;DHT22;64356;45.638;13.764;2024-02-14T04:21:56;19.30;43.90
75738;DHT22;64356;45.638;13.764;2024-02-14T04:24:22;19.30;43.90
75738;DHT22;64356;45.638;13.764;2024-02-14T04:26:47;19.30;44.40
75738;DHT22;64356;45.638;13.764;2024-02-14T04:29:14;19.30;44.20
75738;DHT22;64356;45.638;13.764;2024-02-14T04:31:40;19.30;44.70
75738;DHT22;64356;45.638;13.764;2024-02-14T04:34:08;19.30;44.50
75738;DHT22;64356;45.638;13.764;2024-02-14T04:36:36;19.30;44.60
75738;DHT22;64356;45.638;13.764;2024-02-14T04:39:01;19.30;44.70
75738;DHT22;64356;45.638;13.764;2024-02-14T04:41:28;19.30;44.70
75738;DHT22;64356;45.638;13.764;2024-02-14T04:43:54;19.30;44.80
75738;DHT22;64356;45.638;13.764;2024-02-14T04:46:20;19.30;44.70
75738;DHT22;64356;45.638;13.764;2024-02-14T04:48:48;19.30;44.70
75738;DHT22;64356;45.638;13.764;2024-02-14T04:51:14;19.30;45.10
75738;DHT22;64356;45.638;13.764;2024-02-14T04:53:40;19.30;45.00
75738;DHT22;64356;45.638;13.764;2024-02-14T04:56:05;19.30;45.00
75738;DHT22;64356;45.638;13.764;2024-02-14T04:58:31;19.30;45.20
75738;DHT22;64356;45.638;13.764;2024-02-14T05:00:57;19.30;44.90
75738;DHT22;64356;45.638;13.764;2024-02-14T05:03:22;19.30;45.10
75738;DHT22;64356;45.638;13.764;2024-02-14T05:05:49;19.30;45.20
75738;DHT22;64356;45.638;13.764;2024-02-14T05:08:15;19.30;44.80
75738;DHT22;64356;45.638;13.764;2024-02-14T05:10:41;19.30;44.40
75738;DHT22;64356;45.638;13.764;2024-02-14T05:13:06;19.60;42.20
75738;DHT22;64356;45.638;13.764;2024-02-14T05:15:32;20.10;41.50
75738;DHT22;64356;45.638;13.764;2024-02-14T05:18:00;20.50;40.70
75738;DHT22;64356;45.638;13.764;2024-02-14T05:20:27;20.80;39.80
75738;DHT22;64356;45.638;13.764;2024-02-14T05:22:52;21.10;39.00
75738;DHT22;64356;45.638;13.764;2024-02-14T05:25:19;21.30;38.60
75738;DHT22;64356;45.638;13.764;2024-02-14T05:27:44;21.50;38.20
75738;DHT22;64356;45.638;13.764;2024-02-14T05:30:12;21.60;38.00
75738;DHT22;64356;45.638;13.764;2024-02-14T05:32:38;21.70;38.00
75738;DHT22;64356;45.638;13.764;2024-02-14T05:35:05;21.80;37.80
75738;DHT22;64356;45.638;13.764;2024-02-14T05:37:31;21.90;37.50
75738;DHT22;64356;45.638;13.764;2024-02-14T05:39:57;22.00;37.40
75738;DHT22;64356;45.638;13.764;2024-02-14T05:42:23;22.00;37.80
75738;DHT22;64356;45.638;13.764;2024-02-14T05:44:48;22.10;37.00
75738;DHT22;64356;45.638;13.764;2024-02-14T05:47:14;22.20;36.80
75738;DHT22;64356;45.638;13.764;2024-02-14T05:49:40;22.30;36.70
75738;DHT22;64356;45.638;13.764;2024-02-14T05:52:08;22.40;36.60
75738;DHT22;64356;45.638;13.764;2024-02-14T05:54:34;22.50;36.30
75738;DHT22;64356;45.638;13.764;2024-02-14T05:57:00;22.60;36.20
75738;DHT22;64356;45.638;13.764;2024-02-14T05:59:27;22.70;36.00
75738;DHT22;64356;45.638;13.764;2024-02-14T06:01:53;22.70;35.90
75738;DHT22;64356;45.638;13.764;2024-02-14T06:04:19;22.80;35.80
75738;DHT22;64356;45.638;13.764;2024-02-14T06:06:44;22.90;35.60
75738;DHT22;64356;45.638;13.764;2024-02-14T06:09:10;23.00;35.60
75738;DHT22;64356;45.638;13.764;2024-02-14T06:11:37;23.10;35.50
75738;DHT22;64356;45.638;13.764;2024-02-14T06:14:07;23.20;35.40
75738;DHT22;64356;45.638;13.764;2024-02-14T06:16:34;23.20;35.30
75738;DHT22;64356;45.638;13.764;2024-02-14T06:19:00;23.30;35.20
75738;DHT22;64356;45.638;13.764;2024-02-14T06:21:26;23.30;35.50
75738;DHT22;64356;45.638;13.764;2024-02-14T06:23:52;23.50;35.30
75738;DHT22;64356;45.638;13.764;2024-02-14T06:26:17;23.60;34.90
75738;DHT22;64356;45.638;13.764;2024-02-14T06:28:47;23.60;34.70
75738;DHT22;64356;45.638;13.764;2024-02-14T06:31:18;23.80;34.80
75738;DHT22;64356;45.638;13.764;2024-02-14T06:33:44;23.80;34.80
75738;DHT22;64356;45.638;13.764;2024-02-14T06:36:09;23.90;34.60
75738;DHT22;64356;45.638;13.764;2024-02-14T06:38:35;23.90;35.00
75738;DHT22;64356;45.638;13.764;2024-02-14T06:41:01;23.90;34.60
75738;DHT22;64356;45.638;13.764;2024-02-14T06:43:27;23.80;34.70
75738;DHT22;64356;45.638;13.764;2024-02-14T06:45:55;23.70;33.20
75738;DHT22;64356;45.638;13.764;2024-02-14T06:48:20;23.40;34.30
75738;DHT22;64356;45.638;13.764;2024-02-14T06:50:49;23.20;34.80
75738;DHT22;64356;45.638;13.764;2024-02-14T06:53:15;23.20;35.40
75738;DHT22;64356;45.638;13.764;2024-02-14T06:55:40;23.20;35.50
75738;DHT22;64356;45.638;13.764;2024-02-14T06:58:07;23.20;35.60
75738;DHT22;64356;45.638;13.764;2024-02-14T07:00:33;23.20;35.90
75738;DHT22;64356;45.638;13.764;2024-02-14T07:02:59;23.20;35.70
75738;DHT22;64356;45.638;13.764;2024-02-14T07:05:24;23.20;35.70
75738;DHT22;64356;45.638;13.764;2024-02-14T07:07:51;23.20;35.60
75738;DHT22;64356;45.638;13.764;2024-02-14T07:10:18;23.20;36.20
75738;DHT22;64356;45.638;13.764;2024-02-14T07:12:43;23.10;36.80
75738;DHT22;64356;45.638;13.764;2024-02-14T07:15:09;23.10;37.60
75738;DHT22;64356;45.638;13.764;2024-02-14T07:17:34;23.10;38.20
75738;DHT22;64356;45.638;13.764;2024-02-14T07:20:03;23.10;38.60
75738;DHT22;64356;45.638;13.764;2024-02-14T07:22:29;23.10;38.40
75738;DHT22;64356;45.638;13.764;2024-02-14T07:24:56;23.10;38.20
75738;DHT22;64356;45.638;13.764;2024-02-14T07:27:21;23.10;38.90
75738;DHT22;64356;45.638;13.764;2024-02-14T07:29:49;23.10;38.80
75738;DHT22;64356;45.638;13.764;2024-02-14T07:32:15;23.10;38.70
75738;DHT22;64356;45.638;13.764;2024-02-14T07:34:42;23.10;39.10
75738;DHT22;64356;45.638;13.764;2024-02-14T07:37:07;23.10;39.10
75738;DHT22;64356;45.638;13.764;2024-02-14T07:39:33;23.10;39.30
75738;DHT22;64356;45.638;13.764;2024-02-14T07:42:03;23.10;39.50
75738;DHT22;64356;45.638;13.764;2024-02-14T07:44:29;23.10;39.20
75738;DHT22;64356;45.638;13.764;2024-02-14T07:46:54;23.20;39.30
75738;DHT22;64356;45.638;13.764;2024-02-14T07:49:20;23.20;39.60
75738;DHT22;64356;45.638;13.764;2024-02-14T07:51:46;23.20;39.80
75738;DHT22;64356;45.638;13.764;2024-02-14T07:54:12;23.10;39.40
75738;DHT22;64356;45.638;13.764;2024-02-14T07:56:37;23.10;39.60
75738;DHT22;64356;45.638;13.764;2024-02-14T07:59:03;23.10;39.20
75738;DHT22;64356;45.638;13.764;2024-02-14T08:01:30;23.10;39.30
75738;DHT22;64356;45.638;13.764;2024-02-14T08:03:56;23.10;39.10
75738;DHT22;64356;45.638;13.764;2024-02-14T08:06:22;23.20;39.00
75738;DHT22;64356;45.638;13.764;2024-02-14T08:08:47;23.20;38.30
75738;DHT22;64356;45.638;13.764;2024-02-14T08:11:19;23.20;38.20
75738;DHT22;64356;45.638;13.764;2024-02-14T08:13:45;23.20;38.80
75738;DHT22;64356;45.638;13.764;2024-02-14T08:16:11;23.20;39.30
75738;DHT22;64356;45.638;13.764;2024-02-14T08:18:44;23.20;39.00
75738;DHT22;64356;45.638;13.764;2024-02-14T08:21:09;23.20;39.10
75738;DHT22;64356;45.638;13.764;2024-02-14T08:23:36;23.20;39.50
75738;DHT22;64356;45.638;13.764;2024-02-14T08:26:04;23.30;39.70
75738;DHT22;64356;45.638;13.764;2024-02-14T08:28:38;23.30;39.00
75738;DHT22;64356;45.638;13.764;2024-02-14T08:31:09;23.20;39.30
75738;DHT22;64356;45.638;13.764;2024-02-14T08:33:35;23.30;40.20
75738;DHT22;64356;45.638;13.764;2024-02-14T08:36:01;23.30;40.20
75738;DHT22;64356;45.638;13.764;2024-02-14T08:38:27;23.30;40.00
75738;DHT22;64356;45.638;13.764;2024-02-14T08:40:53;23.20;39.70
75738;DHT22;64356;45.638;13.764;2024-02-14T08:43:19;23.30;39.60
75738;DHT22;64356;45.638;13.764;2024-02-14T08:45:45;23.30;39.90
75738;DHT22;64356;45.638;13.764;2024-02-14T08:48:10;23.30;40.50
75738;DHT22;64356;45.638;13.764;2024-02-14T08:50:36;23.30;40.50
75738;DHT22;64356;45.638;13.764;2024-02-14T08:53:02;23.40;40.90
75738;DHT22;64356;45.638;13.764;2024-02-14T08:55:28;23.40;40.30
75738;DHT22;64356;45.638;13.764;2024-02-14T08:57:54;23.40;40.20
75738;DHT22;64356;45.638;13.764;2024-02-14T09:00:20;23.40;40.10
75738;DHT22;64356;45.638;13.764;2024-02-14T09:02:47;23.40;40.10
75738;DHT22;64356;45.638;13.764;2024-02-14T09:05:13;23.50;40.90
75738;DHT22;64356;45.638;13.764;2024-02-14T09:07:39;23.50;40.90
75738;DHT22;64356;45.638;13.764;2024-02-14T09:10:07;23.60;40.30
75738;DHT22;64356;45.638;13.764;2024-02-14T09:12:32;23.60;40.70
75738;DHT22;64356;45.638;13.764;2024-02-14T09:14:58;23.60;40.20
75738;DHT22;64356;45.638;13.764;2024-02-14T09:17:24;23.70;40.50
75738;DHT22;64356;45.638;13.764;2024-02-14T09:19:50;23.70;40.70
75738;DHT22;64356;45.638;13.764;2024-02-14T09:22:16;23.70;40.70
75738;DHT22;64356;45.638;13.764;2024-02-14T09:24:47;23.70;41.00
75738;DHT22;64356;45.638;13.764;2024-02-14T09:27:13;23.70;40.80
75738;DHT22;64356;45.638;13.764;2024-02-14T09:29:39;23.80;40.90
75738;DHT22;64356;45.638;13.764;2024-02-14T09:32:04;23.80;40.60
75738;DHT22;64356;45.638;13.764;2024-02-14T09:34:30;23.80;40.10
75738;DHT22;64356;45.638;13.764;2024-02-14T09:36:56;23.90;40.50
75738;DHT22;64356;45.638;13.764;2024-02-14T09:39:24;23.90;40.70
75738;DHT22;64356;45.638;13.764;2024-02-14T09:41:51;23.90;40.40
75738;DHT22;64356;45.638;13.764;2024-02-14T09:44:17;23.90;38.80
75738;DHT22;64356;45.638;13.764;2024-02-14T09:46:43;23.80;37.20
75738;DHT22;64356;45.638;13.764;2024-02-14T09:49:09;23.60;36.70
75738;DHT22;64356;45.638;13.764;2024-02-14T09:51:35;23.40;37.50
75738;DHT22;64356;45.638;13.764;2024-02-14T09:54:02;23.30;36.80
75738;DHT22;64356;45.638;13.764;2024-02-14T09:56:29;23.10;36.50
75738;DHT22;64356;45.638;13.764;2024-02-14T09:58:54;23.10;36.90
75738;DHT22;64356;45.638;13.764;2024-02-14T10:01:23;23.00;37.10
75738;DHT22;64356;45.638;13.764;2024-02-14T10:03:50;23.00;37.30
75738;DHT22;64356;45.638;13.764;2024-02-14T10:06:19;22.90;37.80
75738;DHT22;64356;45.638;13.764;2024-02-14T10:08:46;23.00;38.60
75738;DHT22;64356;45.638;13.764;2024-02-14T10:11:13;23.10;39.40
75738;DHT22;64356;45.638;13.764;2024-02-14T10:13:41;23.30;39.90
75738;DHT22;64356;45.638;13.764;2024-02-14T10:16:07;23.50;40.50
75738;DHT22;64356;45.638;13.764;2024-02-14T10:18:35;23.60;40.60
75738;DHT22;64356;45.638;13.764;2024-02-14T10:21:00;23.80;40.40
75738;DHT22;64356;45.638;13.764;2024-02-14T10:23:27;23.90;40.80
75738;DHT22;64356;45.638;13.764;2024-02-14T10:25:53;24.00;40.80
75738;DHT22;64356;45.638;13.764;2024-02-14T10:28:20;24.00;40.70
75738;DHT22;64356;45.638;13.764;2024-02-14T10:30:47;24.00;40.90
75738;DHT22;64356;45.638;13.764;2024-02-14T10:33:18;24.10;41.10
75738;DHT22;64356;45.638;13.764;2024-02-14T10:35:44;24.10;41.00
75738;DHT22;64356;45.638;13.764;2024-02-14T10:38:11;24.10;41.20
75738;DHT22;64356;45.638;13.764;2024-02-14T10:40:37;24.10;41.20
75738;DHT22;64356;45.638;13.764;2024-02-14T10:43:05;24.20;41.20
75738;DHT22;64356;45.638;13.764;2024-02-14T10:45:31;24.20;41.50
75738;DHT22;64356;45.638;13.764;2024-02-14T10:47:56;24.20;41.50
75738;DHT22;64356;45.638;13.764;2024-02-14T10:50:23;24.30;41.30
75738;DHT22;64356;45.638;13.764;2024-02-14T10:52:49;24.30;41.30
75738;DHT22;64356;45.638;13.764;2024-02-14T10:55:17;24.30;41.60
75738;DHT22;64356;45.638;13.764;2024-02-14T10:57:46;24.40;42.10
75738;DHT22;64356;45.638;13.764;2024-02-14T11:00:12;24.40;41.60
75738;DHT22;64356;45.638;13.764;2024-02-14T11:02:41;24.40;41.20
75738;DHT22;64356;45.638;13.764;2024-02-14T11:05:13;24.50;41.60
75738;DHT22;64356;45.638;13.764;2024-02-14T11:07:46;24.60;41.50
75738;DHT22;64356;45.638;13.764;2024-02-14T11:10:19;24.60;41.50
75738;DHT22;64356;45.638;13.764;2024-02-14T11:12:46;24.70;41.10
75738;DHT22;64356;45.638;13.764;2024-02-14T11:15:14;24.70;41.20
75738;DHT22;64356;45.638;13.764;2024-02-14T11:17:41;24.80;41.20
75738;DHT22;64356;45.638;13.764;2024-02-14T11:20:17;24.80;41.20
75738;DHT22;64356;45.638;13.764;2024-02-14T11:23:20;24.90;41.10
75738;DHT22;64356;45.638;13.764;2024-02-14T11:25:37;24.90;41.00
75738;DHT22;64356;45.638;13.764;2024-02-14T11:28:12;24.90;41.00
75738;DHT22;64356;45.638;13.764;2024-02-14T11:30:39;25.00;41.20
75738;DHT22;64356;45.638;13.764;2024-02-14T11:33:18;25.00;40.90
75738;DHT22;64356;45.638;13.764;2024-02-14T11:35:45;25.10;41.10
75738;DHT22;64356;45.638;13.764;2024-02-14T11:38:10;25.10;40.80
75738;DHT22;64356;45.638;13.764;2024-02-14T11:40:36;25.20;40.90
75738;DHT22;64356;45.638;13.764;2024-02-14T11:43:19;25.20;40.80
75738;DHT22;64356;45.638;13.764;2024-02-14T11:45:46;25.20;41.00
75738;DHT22;64356;45.638;13.764;2024-02-14T11:48:15;25.20;40.80
75738;DHT22;64356;45.638;13.764;2024-02-14T11:50:41;25.20;41.10
75738;DHT22;64356;45.638;13.764;2024-02-14T11:53:09;25.20;40.60
75738;DHT22;64356;45.638;13.764;2024-02-14T11:55:39;25.30;40.70
75738;DHT22;64356;45.638;13.764;2024-02-14T11:58:06;25.30;40.70
75738;DHT22;64356;45.638;13.764;2024-02-14T12:00:33;25.30;40.30
75738;DHT22;64356;45.638;13.764;2024-02-14T12:03:01;25.40;40.60
75738;DHT22;64356;45.638;13.764;2024-02-14T12:05:27;25.40;40.70
75738;DHT22;64356;45.638;13.764;2024-02-14T12:07:53;25.40;40.40
75738;DHT22;64356;45.638;13.764;2024-02-14T12:10:19;25.40;40.40
75738;DHT22;64356;45.638;13.764;2024-02-14T12:12:47;25.40;40.30
75738;DHT22;64356;45.638;13.764;2024-02-14T12:15:13;25.40;40.20
75738;DHT22;64356;45.638;13.764;2024-02-14T12:17:41;25.40;40.10
75738;DHT22;64356;45.638;13.764;2024-02-14T12:20:10;25.40;40.30
75738;DHT22;64356;45.638;13.764;2024-02-14T12:22:39;25.50;40.20
75738;DHT22;64356;45.638;13.764;2024-02-14T12:25:05;25.50;40.10
75738;DHT22;64356;45.638;13.764;2024-02-14T12:27:34;25.50;40.00
75738;DHT22;64356;45.638;13.764;2024-02-14T12:30:03;25.60;39.80
75738;DHT22;64356;45.638;13.764;2024-02-14T12:32:29;25.60;39.80
75738;DHT22;64356;45.638;13.764;2024-02-14T12:34:55;25.70;39.80
75738;DHT22;64356;45.638;13.764;2024-02-14T12:37:21;25.80;39.60
75738;DHT22;64356;45.638;13.764;2024-02-14T12:39:47;25.80;39.70
75738;DHT22;64356;45.638;13.764;2024-02-14T12:42:13;25.80;39.60
75738;DHT22;64356;45.638;13.764;2024-02-14T12:44:38;25.90;39.50
75738;DHT22;64356;45.638;13.764;2024-02-14T12:47:04;25.90;39.30
75738;DHT22;64356;45.638;13.764;2024-02-14T12:49:30;25.90;39.10
75738;DHT22;64356;45.638;13.764;2024-02-14T12:51:58;26.00;39.10
75738;DHT22;64356;45.638;13.764;2024-02-14T12:54:23;26.00;39.20
75738;DHT22;64356;45.638;13.764;2024-02-14T12:56:49;26.00;39.50
75738;DHT22;64356;45.638;13.764;2024-02-14T12:59:16;25.90;39.20
75738;DHT22;64356;45.638;13.764;2024-02-14T13:01:46;26.00;39.30
75738;DHT22;64356;45.638;13.764;2024-02-14T13:04:13;25.90;39.20
75738;DHT22;64356;45.638;13.764;2024-02-14T13:06:42;26.00;39.40
75738;DHT22;64356;45.638;13.764;2024-02-14T13:09:07;26.00;39.40
75738;DHT22;64356;45.638;13.764;2024-02-14T13:11:33;26.00;39.40
75738;DHT22;64356;45.638;13.764;2024-02-14T13:13:59;26.00;39.30
75738;DHT22;64356;45.638;13.764;2024-02-14T13:16:25;26.00;39.40
75738;DHT22;64356;45.638;13.764;2024-02-14T13:18:50;25.90;39.40
75738;DHT22;64356;45.638;13.764;2024-02-14T13:21:18;25.80;39.60
75738;DHT22;64356;45.638;13.764;2024-02-14T13:23:43;25.80;39.80
75738;DHT22;64356;45.638;13.764;2024-02-14T13:26:09;25.70;39.90
75738;DHT22;64356;45.638;13.764;2024-02-14T13:28:34;25.70;39.90
75738;DHT22;64356;45.638;13.764;2024-02-14T13:31:00;25.70;39.80
75738;DHT22;64356;45.638;13.764;2024-02-14T13:33:26;25.80;39.90
75738;DHT22;64356;45.638;13.764;2024-02-14T13:35:51;25.80;39.90
75738;DHT22;64356;45.638;13.764;2024-02-14T13:38:17;25.80;39.60
75738;DHT22;64356;45.638;13.764;2024-02-14T13:40:43;25.80;39.60
75738;DHT22;64356;45.638;13.764;2024-02-14T13:43:09;25.80;39.90
75738;DHT22;64356;45.638;13.764;2024-02-14T13:45:42;25.70;40.00
75738;DHT22;64356;45.638;13.764;2024-02-14T13:48:08;25.70;39.60
75738;DHT22;64356;45.638;13.764;2024-02-14T13:50:35;25.70;39.50
75738;DHT22;64356;45.638;13.764;2024-02-14T13:53:00;25.70;39.60
75738;DHT22;64356;45.638;13.764;2024-02-14T13:55:26;25.70;39.50
75738;DHT22;64356;45.638;13.764;2024-02-14T13:57:51;25.70;39.60
75738;DHT22;64356;45.638;13.764;2024-02-14T14:00:17;25.70;39.50
75738;DHT22;64356;45.638;13.764;2024-02-14T14:02:43;25.70;40.20
75738;DHT22;64356;45.638;13.764;2024-02-14T14:05:09;25.70;39.50
75738;DHT22;64356;45.638;13.764;2024-02-14T14:07:35;25.70;40.00
75738;DHT22;64356;45.638;13.764;2024-02-14T14:10:02;25.70;38.70
75738;DHT22;64356;45.638;13.764;2024-02-14T14:12:28;25.60;36.30
75738;DHT22;64356;45.638;13.764;2024-02-14T14:14:53;25.50;35.60
75738;DHT22;64356;45.638;13.764;2024-02-14T14:17:19;25.40;38.00
75738;DHT22;64356;45.638;13.764;2024-02-14T14:19:45;25.30;39.80
75738;DHT22;64356;45.638;13.764;2024-02-14T14:22:11;25.10;40.80
75738;DHT22;64356;45.638;13.764;2024-02-14T14:24:36;25.00;41.30
75738;DHT22;64356;45.638;13.764;2024-02-14T14:27:02;24.90;41.70
75738;DHT22;64356;45.638;13.764;2024-02-14T14:29:27;24.80;42.10
75738;DHT22;64356;45.638;13.764;2024-02-14T14:31:53;24.80;42.20
75738;DHT22;64356;45.638;13.764;2024-02-14T14:34:19;24.80;42.40
75738;DHT22;64356;45.638;13.764;2024-02-14T14:36:45;24.70;42.50
75738;DHT22;64356;45.638;13.764;2024-02-14T14:39:11;24.70;42.40
75738;DHT22;64356;45.638;13.764;2024-02-14T14:41:39;24.70;42.50
75738;DHT22;64356;45.638;13.764;2024-02-14T14:44:07;24.70;42.50
75738;DHT22;64356;45.638;13.764;2024-02-14T14:46:32;24.70;42.50
75738;DHT22;64356;45.638;13.764;2024-02-14T14:49:00;24.60;42.40
75738;DHT22;64356;45.638;13.764;2024-02-14T14:51:26;24.60;42.40
75738;DHT22;64356;45.638;13.764;2024-02-14T14:53:51;24.60;39.90
75738;DHT22;64356;45.638;13.764;2024-02-14T14:56:17;24.60;38.50
75738;DHT22;64356;45.638;13.764;2024-02-14T14:58:43;24.50;38.20
75738;DHT22;64356;45.638;13.764;2024-02-14T15:01:09;24.50;38.00
75738;DHT22;64356;45.638;13.764;2024-02-14T15:03:34;24.40;38.20
75738;DHT22;64356;45.638;13.764;2024-02-14T15:06:00;24.30;37.80
75738;DHT22;64356;45.638;13.764;2024-02-14T15:08:26;24.30;38.00
75738;DHT22;64356;45.638;13.764;2024-02-14T15:10:56;24.20;37.40